createdAt,value
2018-05-27T00:02:05.524Z,79.39
2018-05-27T00:04:33.138Z,79.58
2018-05-27T00:07:00.815Z,79.86
2018-05-27T00:09:28.470Z,80.23
2018-05-27T00:11:56.107Z,80.41
2018-05-27T00:14:23.798Z,80.62
2018-05-27T00:16:51.465Z,80.89
2018-05-27T00:19:19.088Z,80.95
2018-05-27T00:21:46.795Z,81.03
2018-05-27T00:24:14.402Z,81.24
2018-05-27T00:26:42.114Z,81.30
2018-05-27T00:29:09.782Z,81.32
2018-05-27T00:31:37.444Z,81.42
2018-05-27T00:34:05.063Z,81.35
2018-05-27T00:36:32.711Z,81.41
2018-05-27T00:39:00.428Z,81.48
2018-05-27T00:41:28.094Z,81.38
2018-05-27T00:43:55.706Z,81.26
2018-05-27T00:46:23.416Z,81.22
2018-05-27T00:48:51.057Z,81.04
2018-05-27T00:51:18.675Z,80.83
2018-05-27T00:53:58.238Z,80.69
2018-05-27T00:56:25.849Z,80.65
2018-05-27T00:58:53.597Z,80.63
2018-05-27T01:01:21.212Z,80.70
2018-05-27T01:03:48.925Z,80.79
2018-05-27T01:06:16.572Z,80.71
2018-05-27T01:08:44.223Z,80.60
2018-05-27T01:11:11.910Z,80.50
2018-05-27T01:13:39.551Z,80.41
2018-05-27T01:16:07.245Z,80.43
2018-05-27T01:18:34.913Z,80.33
2018-05-27T01:21:02.570Z,80.21
2018-05-27T01:23:30.230Z,80.16
2018-05-27T01:25:57.855Z,80.10
2018-05-27T01:28:25.559Z,80.02
2018-05-27T01:30:53.169Z,79.98
2018-05-27T01:33:20.803Z,80.02
2018-05-27T01:35:48.423Z,80.07
2018-05-27T01:38:16.075Z,80.09
2018-05-27T01:40:43.698Z,79.93
2018-05-27T01:43:11.337Z,79.94
2018-05-27T01:45:38.959Z,80.01
2018-05-27T01:48:06.603Z,80.23
2018-05-27T01:50:34.229Z,80.28
2018-05-27T01:53:01.875Z,80.25
2018-05-27T01:55:29.530Z,80.33
2018-05-27T01:57:57.199Z,80.23
2018-05-27T02:00:24.867Z,80.28
2018-05-27T02:02:52.523Z,80.04
2018-05-27T02:05:20.177Z,79.96
2018-05-27T02:07:47.807Z,79.84
2018-05-27T02:10:15.454Z,79.83
2018-05-27T02:12:43.180Z,79.66
2018-05-27T02:15:10.842Z,79.54
2018-05-27T02:17:38.503Z,79.47
2018-05-27T02:20:06.168Z,79.18
2018-05-27T02:22:33.787Z,78.94
2018-05-27T02:25:01.440Z,78.84
2018-05-27T02:27:29.064Z,78.79
2018-05-27T02:29:56.811Z,78.88
2018-05-27T02:32:24.433Z,79.00
2018-05-27T02:34:52.088Z,79.08
2018-05-27T02:37:19.707Z,79.00
2018-05-27T02:39:47.352Z,78.87
2018-05-27T02:42:15.029Z,78.87
2018-05-27T02:44:42.793Z,78.91
2018-05-27T02:47:11.267Z,78.96
2018-05-27T02:49:38.908Z,78.99
2018-05-27T02:52:06.544Z,79.04
2018-05-27T02:54:34.183Z,79.10
2018-05-27T02:57:01.821Z,78.99
2018-05-27T02:59:29.484Z,78.92
2018-05-27T03:01:57.144Z,78.95
2018-05-27T03:04:24.803Z,78.91
2018-05-27T03:06:52.418Z,78.93
2018-05-27T03:09:20.059Z,78.90
2018-05-27T03:11:47.712Z,78.80
2018-05-27T03:14:15.371Z,78.68
2018-05-27T03:16:42.992Z,78.55
2018-05-27T03:19:10.683Z,78.48
2018-05-27T03:21:38.326Z,78.37
2018-05-27T03:24:06.008Z,78.17
2018-05-27T03:26:33.763Z,78.12
2018-05-27T03:29:01.427Z,78.04
2018-05-27T03:31:29.091Z,77.91
2018-05-27T03:33:56.756Z,78.06
2018-05-27T03:36:24.415Z,78.11
2018-05-27T03:38:52.039Z,78.22
2018-05-27T03:41:19.679Z,78.18
2018-05-27T03:43:47.512Z,78.33
2018-05-27T03:46:15.161Z,78.51
2018-05-27T03:48:42.788Z,78.50
2018-05-27T03:51:10.447Z,78.62
2018-05-27T03:53:38.071Z,78.66
2018-05-27T03:56:05.815Z,78.72
2018-05-27T03:58:35.050Z,78.71
2018-05-27T04:01:02.695Z,78.62
2018-05-27T04:03:30.339Z,78.53
2018-05-27T04:06:09.880Z,78.53
2018-05-27T04:08:37.499Z,78.42
2018-05-27T04:11:05.143Z,78.33
2018-05-27T04:13:32.775Z,78.25
2018-05-27T04:16:00.526Z,78.17
2018-05-27T04:18:28.147Z,78.11
2018-05-27T04:20:55.855Z,78.04
2018-05-27T04:23:23.478Z,78.03
2018-05-27T04:25:51.179Z,78.09
2018-05-27T04:28:18.835Z,78.18
2018-05-27T04:30:46.475Z,78.18
2018-05-27T04:33:14.127Z,78.11
2018-05-27T04:35:41.742Z,77.82
2018-05-27T04:38:09.379Z,77.75
2018-05-27T04:40:37.000Z,77.68
2018-05-27T04:43:04.646Z,77.74
2018-05-27T04:45:32.266Z,77.75
2018-05-27T04:47:59.940Z,77.77
2018-05-27T04:50:27.607Z,77.70
2018-05-27T04:52:55.267Z,77.50
2018-05-27T04:55:22.931Z,77.35
2018-05-27T04:57:50.576Z,77.24
2018-05-27T05:00:18.250Z,76.93
2018-05-27T05:02:45.911Z,76.71
2018-05-27T05:05:13.530Z,76.58
2018-05-27T05:07:41.167Z,76.43
2018-05-27T05:10:08.788Z,76.33
2018-05-27T05:15:03.438Z,76.10
2018-05-27T05:17:31.176Z,76.07
2018-05-27T05:19:58.809Z,76.20
2018-05-27T05:22:26.447Z,76.17
2018-05-27T05:24:54.158Z,76.23
2018-05-27T05:27:21.809Z,76.21
2018-05-27T05:29:49.427Z,76.17
2018-05-27T05:32:17.067Z,76.32
2018-05-27T05:34:44.712Z,76.33
2018-05-27T05:37:12.471Z,76.51
2018-05-27T05:39:40.091Z,76.49
2018-05-27T05:42:07.711Z,76.54
2018-05-27T05:44:35.356Z,76.75
2018-05-27T05:47:03.021Z,77.05
2018-05-27T05:49:30.664Z,77.12
2018-05-27T05:51:58.348Z,77.14
2018-05-27T05:54:26.016Z,77.25
2018-05-27T05:56:53.659Z,77.49
2018-05-27T05:59:21.719Z,77.42
2018-05-27T06:01:49.339Z,77.38
2018-05-27T06:04:16.983Z,77.02
2018-05-27T06:06:44.605Z,77.10
2018-05-27T06:09:12.287Z,77.13
2018-05-27T06:11:39.906Z,76.99
2018-05-27T06:14:07.547Z,76.89
2018-05-27T06:16:35.171Z,76.79
2018-05-27T06:19:02.821Z,76.75
2018-05-27T06:21:30.511Z,76.79
2018-05-27T06:23:58.259Z,76.55
2018-05-27T06:26:25.884Z,76.48
2018-05-27T06:28:53.522Z,76.68
2018-05-27T06:31:21.137Z,76.68
2018-05-27T06:33:48.814Z,76.70
2018-05-27T06:36:16.431Z,76.49
2018-05-27T06:38:44.076Z,76.02
2018-05-27T06:41:11.694Z,76.03
2018-05-27T06:43:39.335Z,75.98
2018-05-27T06:46:07.019Z,75.66
2018-05-27T06:48:34.692Z,75.30
2018-05-27T06:51:02.335Z,75.09
2018-05-27T06:53:29.951Z,74.77
2018-05-27T06:55:57.596Z,74.54
2018-05-27T06:58:25.218Z,74.41
2018-05-27T07:00:52.855Z,74.16
2018-05-27T07:03:20.554Z,73.63
2018-05-27T07:05:48.224Z,73.31
2018-05-27T07:08:15.840Z,73.17
2018-05-27T07:10:43.498Z,72.94
2018-05-27T07:13:11.203Z,73.03
2018-05-27T07:15:38.842Z,73.14
2018-05-27T07:18:06.459Z,73.21
2018-05-27T07:20:34.196Z,73.04
2018-05-27T07:23:01.815Z,73.00
2018-05-27T07:25:29.455Z,73.13
2018-05-27T07:27:57.075Z,73.01
2018-05-27T07:30:24.715Z,73.04
2018-05-27T07:32:52.335Z,73.31
2018-05-27T07:35:20.073Z,73.74
2018-05-27T07:37:47.691Z,74.05
2018-05-27T07:40:15.343Z,73.95
2018-05-27T07:42:42.959Z,73.69
2018-05-27T07:45:10.601Z,73.69
2018-05-27T07:47:38.223Z,73.87
2018-05-27T07:50:05.935Z,73.90
2018-05-27T07:52:33.560Z,73.89
2018-05-27T07:55:01.230Z,74.01
2018-05-27T07:57:28.852Z,73.64
2018-05-27T07:59:56.515Z,73.30
2018-05-27T08:02:24.134Z,73.14
2018-05-27T08:04:51.806Z,72.82
2018-05-27T08:07:19.447Z,72.74
2018-05-27T08:09:47.063Z,72.55
2018-05-27T08:12:14.707Z,72.29
2018-05-27T08:14:42.323Z,71.99
2018-05-27T08:17:09.963Z,71.67
2018-05-27T08:19:37.578Z,71.72
2018-05-27T08:22:05.223Z,71.62
2018-05-27T08:24:32.855Z,71.25
2018-05-27T08:27:00.500Z,71.19
2018-05-27T08:29:28.227Z,71.04
2018-05-27T08:31:55.898Z,70.77
2018-05-27T08:34:23.521Z,70.64
2018-05-27T08:36:51.167Z,70.77
2018-05-27T08:39:18.782Z,70.54
2018-05-27T08:41:46.428Z,70.54
2018-05-27T08:44:14.058Z,70.01
2018-05-27T08:46:41.704Z,69.97
2018-05-27T08:49:09.432Z,69.58
2018-05-27T08:51:37.080Z,69.12
2018-05-27T08:54:04.703Z,69.08
2018-05-27T08:56:32.342Z,68.95
2018-05-27T08:58:59.959Z,68.28
2018-05-27T09:01:27.679Z,67.89
2018-05-27T09:03:55.279Z,67.39
2018-05-27T09:06:22.925Z,66.80
2018-05-27T09:08:50.544Z,66.46
2018-05-27T09:11:18.195Z,66.09
2018-05-27T09:13:45.815Z,65.86
2018-05-27T09:16:13.435Z,65.61
2018-05-27T09:18:41.075Z,64.93
2018-05-27T09:21:08.697Z,64.24
2018-05-27T09:23:36.342Z,63.47
2018-05-27T09:26:04.057Z,62.78
2018-05-27T09:28:31.733Z,62.82
2018-05-27T09:30:59.374Z,62.80
2018-05-27T09:33:27.759Z,62.30
2018-05-27T09:35:55.386Z,62.37
2018-05-27T09:38:23.050Z,61.95
2018-05-27T09:40:50.675Z,61.60
2018-05-27T09:43:18.319Z,60.85
2018-05-27T09:45:45.971Z,60.28
2018-05-27T09:48:13.635Z,60.07
2018-05-27T09:50:41.253Z,60.43
2018-05-27T09:53:08.895Z,61.14
2018-05-27T09:55:36.515Z,61.87
2018-05-27T09:58:04.230Z,62.27
2018-05-27T10:00:31.827Z,62.36
2018-05-27T10:02:59.471Z,62.46
2018-05-27T10:05:27.101Z,62.27
2018-05-27T10:07:54.837Z,61.96
2018-05-27T10:10:22.459Z,61.50
2018-05-27T10:12:50.113Z,61.25
2018-05-27T10:15:17.740Z,61.00
2018-05-27T10:17:45.488Z,60.23
2018-05-27T10:20:13.147Z,59.76
2018-05-27T10:22:40.793Z,59.60
2018-05-27T10:25:08.407Z,59.25
2018-05-27T10:27:36.067Z,59.11
2018-05-27T10:30:03.791Z,59.11
2018-05-27T10:32:31.407Z,58.70
2018-05-27T10:34:59.124Z,58.52
2018-05-27T10:37:26.778Z,58.47
2018-05-27T10:39:54.448Z,58.76
2018-05-27T10:42:22.066Z,58.72
2018-05-27T10:44:49.721Z,58.02
2018-05-27T10:47:17.427Z,58.33
2018-05-27T10:49:45.091Z,57.56
2018-05-27T10:52:12.791Z,56.87
2018-05-27T10:54:40.423Z,56.87
2018-05-27T10:57:08.079Z,56.04
2018-05-27T10:59:35.747Z,55.23
2018-05-27T11:02:03.362Z,54.93
2018-05-27T11:04:31.004Z,54.85
2018-05-27T11:06:58.730Z,54.25
2018-05-27T11:09:26.392Z,54.11
2018-05-27T11:11:54.011Z,54.10
2018-05-27T11:14:21.721Z,53.85
2018-05-27T11:16:49.361Z,53.78
2018-05-27T11:19:17.046Z,53.63
2018-05-27T11:21:44.669Z,52.86
2018-05-27T11:24:12.316Z,52.97
2018-05-27T11:26:39.935Z,53.47
2018-05-27T11:29:07.582Z,54.14
2018-05-27T11:31:35.251Z,54.45
2018-05-27T11:34:02.891Z,54.50
2018-05-27T11:36:30.515Z,55.02
2018-05-27T11:38:58.180Z,55.36
2018-05-27T11:41:25.808Z,55.31
2018-05-27T11:43:53.427Z,55.32
2018-05-27T11:46:21.124Z,55.42
2018-05-27T11:48:48.799Z,55.70
2018-05-27T11:51:16.556Z,55.50
2018-05-27T11:53:44.186Z,55.57
2018-05-27T11:56:11.831Z,55.48
2018-05-27T11:58:39.453Z,55.53
2018-05-27T12:01:07.094Z,54.81
2018-05-27T12:03:34.715Z,54.60
2018-05-27T12:06:02.424Z,54.50
2018-05-27T12:08:30.092Z,54.40
2018-05-27T12:10:57.732Z,54.41
2018-05-27T12:13:25.359Z,54.46
2018-05-27T12:15:53.022Z,54.19
2018-05-27T12:18:20.647Z,53.56
2018-05-27T12:20:48.289Z,53.31
2018-05-27T12:23:15.922Z,52.66
2018-05-27T12:25:44.224Z,51.87
2018-05-27T12:28:11.847Z,51.61
2018-05-27T12:30:39.486Z,51.09
2018-05-27T12:33:07.108Z,50.79
2018-05-27T12:35:34.782Z,51.04
2018-05-27T12:38:02.446Z,50.75
2018-05-27T12:40:30.087Z,50.04
2018-05-27T12:42:57.768Z,50.01
2018-05-27T12:45:25.411Z,49.67
2018-05-27T12:47:53.030Z,49.13
2018-05-27T12:50:20.756Z,49.17
2018-05-27T12:52:48.387Z,48.81
2018-05-27T12:55:16.054Z,48.46
2018-05-27T12:57:43.708Z,48.29
2018-05-27T13:00:11.323Z,48.27
2018-05-27T13:02:38.972Z,48.50
2018-05-27T13:05:06.631Z,48.30
2018-05-27T13:07:34.266Z,48.11
2018-05-27T13:10:01.884Z,48.36
2018-05-27T13:12:29.539Z,48.25
2018-05-27T13:14:57.278Z,48.59
2018-05-27T13:17:25.530Z,48.27
2018-05-27T13:19:53.171Z,48.38
2018-05-27T13:22:20.811Z,48.27
2018-05-27T13:24:48.432Z,48.51
2018-05-27T13:27:16.078Z,48.41
2018-05-27T13:29:43.767Z,48.63
2018-05-27T13:32:11.412Z,48.80
2018-05-27T13:34:39.035Z,48.46
2018-05-27T13:37:06.685Z,48.47
2018-05-27T13:39:34.313Z,48.62
2018-05-27T13:42:01.957Z,48.63
2018-05-27T13:44:29.647Z,48.62
2018-05-27T13:46:57.403Z,48.83
2018-05-27T13:49:25.047Z,49.19
2018-05-27T13:51:52.695Z,49.11
2018-05-27T13:54:20.395Z,49.26
2018-05-27T13:56:48.181Z,49.27
2018-05-27T13:59:15.810Z,49.22
2018-05-27T14:01:43.450Z,49.01
2018-05-27T14:04:11.093Z,49.29
2018-05-27T14:06:38.746Z,49.48
2018-05-27T14:09:06.359Z,49.21
2018-05-27T14:11:33.975Z,49.33
2018-05-27T14:14:01.619Z,49.46
2018-05-27T14:16:29.355Z,48.95
2018-05-27T14:18:57.003Z,49.11
2018-05-27T14:21:24.624Z,48.93
2018-05-27T14:23:52.340Z,49.19
2018-05-27T14:26:19.967Z,49.36
2018-05-27T14:28:47.607Z,48.85
2018-05-27T14:31:15.335Z,49.26
2018-05-27T14:33:42.976Z,49.01
2018-05-27T14:36:10.603Z,48.49
2018-05-27T14:38:38.314Z,49.09
2018-05-27T14:41:05.935Z,48.47
2018-05-27T14:43:33.579Z,48.46
2018-05-27T14:46:01.196Z,48.39
2018-05-27T14:48:28.862Z,48.42
2018-05-27T14:50:56.483Z,48.36
2018-05-27T14:53:24.135Z,48.29
2018-05-27T14:55:51.755Z,48.63
2018-05-27T14:58:19.398Z,48.61
2018-05-27T15:00:47.075Z,48.57
2018-05-27T15:03:14.716Z,48.32
2018-05-27T15:05:42.335Z,48.53
2018-05-27T15:08:09.975Z,48.43
2018-05-27T15:10:37.624Z,48.53
2018-05-27T15:13:05.380Z,48.85
2018-05-27T15:15:33.003Z,48.60
2018-05-27T15:18:00.649Z,48.46
2018-05-27T15:20:28.367Z,48.20
2018-05-27T15:22:56.031Z,48.41
2018-05-27T15:25:23.727Z,48.27
2018-05-27T15:27:51.463Z,48.28
2018-05-27T15:30:19.219Z,47.97
2018-05-27T15:32:46.838Z,47.33
2018-05-27T15:35:14.476Z,47.30
2018-05-27T15:37:42.095Z,47.06
2018-05-27T15:40:09.735Z,47.21
2018-05-27T15:42:37.352Z,47.26
2018-05-27T15:45:04.996Z,47.36
2018-05-27T15:47:32.616Z,47.21
2018-05-27T15:50:00.263Z,47.23
2018-05-27T15:52:27.891Z,47.13
2018-05-27T15:54:55.647Z,47.08
2018-05-27T15:57:23.267Z,47.49
2018-05-27T15:59:50.984Z,46.69
2018-05-27T16:02:18.547Z,43.10
2018-05-27T16:04:46.187Z,41.01
2018-05-27T16:07:13.803Z,41.15
2018-05-27T16:09:41.436Z,40.55
2018-05-27T16:12:09.056Z,41.00
2018-05-27T16:14:36.690Z,41.70
2018-05-27T16:17:04.307Z,42.44
2018-05-27T16:19:31.947Z,43.19
2018-05-27T16:21:59.619Z,43.78
2018-05-27T16:24:27.260Z,44.27
2018-05-27T16:26:54.943Z,44.49
2018-05-27T16:29:22.606Z,46.00
2018-05-27T16:31:50.220Z,48.54
2018-05-27T16:34:17.931Z,48.64
2018-05-27T16:36:45.552Z,48.02
2018-05-27T16:39:13.207Z,48.45
2018-05-27T16:41:40.815Z,49.12
2018-05-27T16:44:08.430Z,49.33
2018-05-27T16:46:36.091Z,49.36
2018-05-27T16:49:03.715Z,48.72
2018-05-27T16:51:31.558Z,47.49
2018-05-27T16:53:59.178Z,47.55
2018-05-27T16:56:26.811Z,48.46
2018-05-27T16:58:54.465Z,48.16
2018-05-27T17:01:22.107Z,48.28
2018-05-27T17:03:49.775Z,47.30
2018-05-27T17:06:17.441Z,46.24
2018-05-27T17:08:45.109Z,46.51
2018-05-27T17:11:12.769Z,46.38
2018-05-27T17:13:40.508Z,46.48
2018-05-27T17:16:08.143Z,46.84
2018-05-27T17:18:35.759Z,46.65
2018-05-27T17:21:03.391Z,46.61
2018-05-27T17:23:31.008Z,45.91
2018-05-27T17:25:58.639Z,45.62
2018-05-27T17:28:26.251Z,45.00
2018-05-27T17:30:53.891Z,45.31
2018-05-27T17:33:21.520Z,45.63
2018-05-27T17:35:49.156Z,45.19
2018-05-27T17:38:16.842Z,45.13
2018-05-27T17:40:44.483Z,45.63
2018-05-27T17:43:12.275Z,45.67
2018-05-27T17:45:40.046Z,46.51
2018-05-27T17:48:10.963Z,47.10
2018-05-27T17:50:38.583Z,47.98
2018-05-27T17:53:06.233Z,48.83
2018-05-27T17:55:33.846Z,49.52
2018-05-27T17:58:01.498Z,50.01
2018-05-27T18:00:29.132Z,50.48
2018-05-27T18:02:56.892Z,51.08
2018-05-27T18:05:24.631Z,52.06
2018-05-27T18:07:52.380Z,52.27
2018-05-27T18:10:20.039Z,52.67
2018-05-27T18:12:47.711Z,53.23
2018-05-27T18:15:15.323Z,53.69
2018-05-27T18:17:42.964Z,53.79
2018-05-27T18:20:10.683Z,54.08
2018-05-27T18:22:38.317Z,54.19
2018-05-27T18:25:06.015Z,54.56
2018-05-27T18:27:33.676Z,54.64
2018-05-27T18:30:01.343Z,54.71
2018-05-27T18:32:28.975Z,54.87
2018-05-27T18:34:56.582Z,55.21
2018-05-27T18:37:24.231Z,55.62
2018-05-27T18:39:51.887Z,55.93
2018-05-27T18:42:19.519Z,56.22
2018-05-27T18:44:47.154Z,56.58
2018-05-27T18:47:14.871Z,56.78
2018-05-27T18:49:42.483Z,57.11
2018-05-27T18:52:10.300Z,57.71
2018-05-27T18:54:37.959Z,58.19
2018-05-27T18:57:05.591Z,58.27
2018-05-27T18:59:33.290Z,58.60
2018-05-27T19:02:01.051Z,58.73
2018-05-27T19:04:28.810Z,58.81
2018-05-27T19:06:56.423Z,59.30
2018-05-27T19:09:24.199Z,59.31
2018-05-27T19:11:51.812Z,58.99
2018-05-27T19:14:19.469Z,59.69
2018-05-27T19:16:47.082Z,58.91
2018-05-27T19:19:14.723Z,58.80
2018-05-27T19:21:42.336Z,58.71
2018-05-27T19:24:09.975Z,58.62
2018-05-27T19:26:37.586Z,58.60
2018-05-27T19:29:05.225Z,58.36
2018-05-27T19:31:32.835Z,58.40
2018-05-27T19:34:00.476Z,58.33
2018-05-27T19:36:28.123Z,58.26
2018-05-27T19:38:55.787Z,58.12
2018-05-27T19:41:23.401Z,58.15
2018-05-27T19:43:51.048Z,58.14
2018-05-27T19:46:18.766Z,58.25
2018-05-27T19:48:46.408Z,58.09
2018-05-27T19:51:14.025Z,58.17
2018-05-27T19:53:41.663Z,58.39
2018-05-27T19:56:09.452Z,58.49
2018-05-27T19:58:37.091Z,58.63
2018-05-27T20:01:04.702Z,58.75
2018-05-27T20:03:32.407Z,58.89
2018-05-27T20:06:00.068Z,58.75
2018-05-27T20:08:27.707Z,58.63
2018-05-27T20:10:55.326Z,58.63
2018-05-27T20:13:22.959Z,58.60
2018-05-27T20:15:50.572Z,58.47
2018-05-27T20:18:18.183Z,58.47
2018-05-27T20:20:45.820Z,58.54
2018-05-27T20:23:13.501Z,58.55
2018-05-27T20:25:41.135Z,58.70
2018-05-27T20:28:08.823Z,58.64
2018-05-27T20:30:36.464Z,58.67
2018-05-27T20:33:04.076Z,58.62
2018-05-27T20:35:31.794Z,58.58
2018-05-27T20:37:59.415Z,58.59
2018-05-27T20:40:27.137Z,58.64
2018-05-27T20:42:54.795Z,58.63
2018-05-27T20:45:22.459Z,58.74
2018-05-27T20:47:50.070Z,58.88
2018-05-27T20:50:17.711Z,58.96
2018-05-27T20:52:45.343Z,59.09
2018-05-27T20:55:13.007Z,59.18
2018-05-27T20:57:40.616Z,59.34
2018-05-27T21:00:08.251Z,59.53
2018-05-27T21:02:35.892Z,59.79
2018-05-27T21:05:03.523Z,59.96
2018-05-27T21:07:31.139Z,60.19
2018-05-27T21:09:58.777Z,60.40
2018-05-27T21:12:26.392Z,60.59
2018-05-27T21:14:54.027Z,60.91
2018-05-27T21:17:21.638Z,61.21
2018-05-27T21:19:49.271Z,61.41
2018-05-27T21:22:16.883Z,61.77
2018-05-27T21:24:44.510Z,62.19
2018-05-27T21:27:12.127Z,62.39
2018-05-27T21:29:39.763Z,62.59
2018-05-27T21:32:07.395Z,62.85
2018-05-27T21:34:35.092Z,63.09
2018-05-27T21:37:02.756Z,63.23
2018-05-27T21:39:30.414Z,63.28
2018-05-27T21:41:58.051Z,63.50
2018-05-27T21:44:25.735Z,63.63
2018-05-27T21:46:53.372Z,63.84
2018-05-27T21:49:20.988Z,63.93
2018-05-27T21:51:48.629Z,64.12
2018-05-27T21:54:16.239Z,64.17
2018-05-27T21:56:43.952Z,64.37
2018-05-27T21:59:11.564Z,64.46
2018-05-27T22:01:39.208Z,64.60
2018-05-27T22:04:06.820Z,64.61
2018-05-27T22:06:34.500Z,64.75
2018-05-27T22:09:02.175Z,64.82
2018-05-27T22:11:29.813Z,64.96
2018-05-27T22:13:57.419Z,65.13
2018-05-27T22:16:25.151Z,65.22
2018-05-27T22:18:52.808Z,65.27
2018-05-27T22:21:20.452Z,65.40
2018-05-27T22:23:48.067Z,65.44
2018-05-27T22:26:15.799Z,65.46
2018-05-27T22:28:43.463Z,65.67
2018-05-27T22:31:11.108Z,65.69
2018-05-27T22:33:38.718Z,65.63
2018-05-27T22:36:06.364Z,65.54
2018-05-27T22:38:33.978Z,65.47
2018-05-27T22:41:01.639Z,65.38
2018-05-27T22:43:29.262Z,65.32
2018-05-27T22:45:56.888Z,65.24
2018-05-27T22:48:24.524Z,65.22
2018-05-27T22:50:52.214Z,65.17
2018-05-27T22:53:19.881Z,65.15
2018-05-27T22:55:47.543Z,65.18
2018-05-27T22:58:15.182Z,65.15
2018-05-27T23:00:42.795Z,65.23
2018-05-27T23:03:10.431Z,65.25
2018-05-27T23:05:38.094Z,65.26
2018-05-27T23:08:05.752Z,65.33
2018-05-27T23:10:33.367Z,65.38
2018-05-27T23:13:01.007Z,65.51
2018-05-27T23:15:28.625Z,65.54
2018-05-27T23:17:56.267Z,65.61
2018-05-27T23:20:23.891Z,65.70
2018-05-27T23:22:51.535Z,65.68
2018-05-27T23:25:19.147Z,65.68
2018-05-27T23:27:46.843Z,65.62
2018-05-27T23:30:14.516Z,65.62
2018-05-27T23:32:42.171Z,65.68
2018-05-27T23:35:09.786Z,65.76
2018-05-27T23:37:37.499Z,65.60
2018-05-27T23:40:05.115Z,65.44
2018-05-27T23:42:32.824Z,65.35
2018-05-27T23:45:00.488Z,65.16
2018-05-27T23:47:28.691Z,65.00
2018-05-27T23:49:56.312Z,64.92
2018-05-27T23:52:23.982Z,64.87
2018-05-27T23:54:51.611Z,64.86
2018-05-27T23:57:19.239Z,64.87
2018-05-27T23:59:46.967Z,64.88
